Time;durP1;ratioP1;P1;durP2;ratioP2;P2;SDS_P1;SDS_P2;PMS_P1;PMS_P2;Temp;Humidity;BMP_temperature;BMP_pressure;BME280_temperature;BME280_humidity;BME280_pressure;Samples;Min_cycle;Max_cycle;Signal;HPM_P1;HPM_P2
2021/03/21 00:00:55;;;;;;;3.50;2.40;;;7.40;99.90;;;;;;5048447;28;20211;-48
2021/03/21 00:03:21;;;;;;;4.20;2.10;;;7.50;99.90;;;;;;5050591;28;20208;-48
2021/03/21 00:05:48;;;;;;;3.40;2.10;;;7.40;99.90;;;;;;5051860;28;20243;-47
2021/03/21 00:08:19;;;;;;;6.03;1.87;;;7.70;99.90;;;;;;5038793;28;20586;-49
2021/03/21 00:10:48;;;;;;;2.13;1.40;;;7.70;99.90;;;;;;5048467;28;20338;-48
2021/03/21 00:13:16;;;;;;;1.40;1.23;;;7.80;99.90;;;;;;5033690;28;20269;-48
2021/03/21 00:15:42;;;;;;;1.50;1.20;;;7.90;99.90;;;;;;5051724;28;20267;-49
2021/03/21 00:18:09;;;;;;;1.20;0.93;;;8.00;99.90;;;;;;5047870;28;20563;-49
2021/03/21 00:20:36;;;;;;;2.97;1.43;;;8.00;99.90;;;;;;5038476;28;20299;-50
2021/03/21 00:23:04;;;;;;;2.27;2.00;;;7.90;99.90;;;;;;5048767;28;20228;-48
2021/03/21 00:25:32;;;;;;;2.17;1.97;;;8.10;99.90;;;;;;5047408;28;20822;-50
2021/03/21 00:27:59;;;;;;;3.57;2.47;;;8.00;99.90;;;;;;5048848;28;20652;-49
2021/03/21 00:30:36;;;;;;;2.10;1.60;;;8.00;99.90;;;;;;5052058;28;20617;-49
2021/03/21 00:33:05;;;;;;;2.40;2.20;;;8.00;99.90;;;;;;5052779;28;20286;-47
2021/03/21 00:35:32;;;;;;;3.30;3.00;;;8.10;99.90;;;;;;5052097;28;20876;-47
2021/03/21 00:38:03;;;;;;;3.53;3.23;;;7.90;99.90;;;;;;5051042;28;20199;-47
2021/03/21 00:40:30;;;;;;;3.33;3.03;;;7.90;99.90;;;;;;5052441;28;20203;-47
2021/03/21 00:42:57;;;;;;;3.20;2.60;;;7.70;99.90;;;;;;5049673;28;20219;-47
2021/03/21 00:45:25;;;;;;;3.47;2.57;;;7.60;99.90;;;;;;5050614;28;20199;-48
2021/03/21 00:47:53;;;;;;;2.17;1.80;;;7.80;99.90;;;;;;5054814;28;20329;-47
2021/03/21 00:50:27;;;;;;;1.30;1.20;;;7.40;99.90;;;;;;5053938;28;20196;-47
2021/03/21 00:52:53;;;;;;;2.17;1.03;;;7.30;99.90;;;;;;5054990;28;20205;-48
2021/03/21 00:55:20;;;;;;;1.57;1.13;;;7.10;99.90;;;;;;5053495;28;20242;-47
2021/03/21 00:57:46;;;;;;;1.67;1.30;;;7.20;99.90;;;;;;5051005;28;20218;-48
2021/03/21 01:00:24;;;;;;;3.03;1.37;;;7.20;99.90;;;;;;5052195;28;20292;-49
2021/03/21 01:02:51;;;;;;;4.20;1.60;;;7.00;99.90;;;;;;5052620;28;20684;-49
2021/03/21 01:05:35;;;;;;;4.67;1.67;;;7.10;99.90;;;;;;5053106;28;20227;-47
2021/03/21 01:08:04;;;;;;;4.67;1.87;;;7.10;99.90;;;;;;5055244;28;20196;-46
2021/03/21 01:10:36;;;;;;;3.10;2.40;;;7.10;99.90;;;;;;5053498;28;20229;-47
2021/03/21 01:13:03;;;;;;;4.30;2.87;;;7.00;99.90;;;;;;5055009;28;20210;-48
2021/03/21 01:15:30;;;;;;;9.80;3.80;;;6.90;99.90;;;;;;5041968;28;20272;-47
2021/03/21 01:17:58;;;;;;;6.80;4.13;;;6.90;99.90;;;;;;5055322;28;20263;-47
2021/03/21 01:20:27;;;;;;;6.47;4.00;;;7.00;99.90;;;;;;5054415;28;20690;-48
2021/03/21 01:22:53;;;;;;;6.70;4.10;;;7.10;99.90;;;;;;5054219;28;20614;-48
2021/03/21 01:25:22;;;;;;;6.53;4.00;;;7.00;99.90;;;;;;5055099;28;20349;-47
2021/03/21 01:27:52;;;;;;;8.13;4.10;;;7.40;99.90;;;;;;5052634;28;20199;-48
2021/03/21 01:30:19;;;;;;;9.10;5.20;;;7.50;99.90;;;;;;5034212;28;20308;-47
2021/03/21 01:32:45;;;;;;;7.70;5.13;;;7.60;99.90;;;;;;5053566;28;20743;-47
2021/03/21 01:35:14;;;;;;;7.80;4.63;;;7.60;99.90;;;;;;5052504;28;20205;-48
2021/03/21 01:37:40;;;;;;;7.03;4.53;;;7.40;99.90;;;;;;5052853;28;20287;-47
2021/03/21 01:40:09;;;;;;;7.00;4.57;;;7.60;99.90;;;;;;5049561;28;20296;-47
2021/03/21 01:42:46;;;;;;;8.63;5.47;;;7.70;99.90;;;;;;5035751;28;20647;-46
2021/03/21 01:45:35;;;;;;;7.90;4.93;;;7.40;99.90;;;;;;5037989;28;20245;-48
2021/03/21 01:48:19;;;;;;;9.50;5.47;;;7.30;99.90;;;;;;5052310;28;20198;-49
2021/03/21 01:50:58;;;;;;;7.57;5.17;;;7.30;99.90;;;;;;5050787;28;21406;-48
2021/03/21 01:53:28;;;;;;;8.63;5.77;;;7.30;99.90;;;;;;5052822;28;20290;-47
2021/03/21 01:55:56;;;;;;;11.30;5.73;;;7.40;99.90;;;;;;5052094;28;20276;-47
2021/03/21 01:58:24;;;;;;;9.93;5.10;;;7.20;99.90;;;;;;5036440;28;20294;-47
2021/03/21 02:00:57;;;;;;;10.83;5.50;;;7.20;99.90;;;;;;5049641;28;20203;-48
2021/03/21 02:03:24;;;;;;;9.20;5.33;;;6.90;99.90;;;;;;5053163;28;20207;-47
2021/03/21 02:05:55;;;;;;;10.40;6.53;;;6.80;99.90;;;;;;5052822;28;20230;-47
2021/03/21 02:08:29;;;;;;;10.67;7.20;;;7.00;99.90;;;;;;5056470;28;20743;-47
2021/03/21 02:10:59;;;;;;;12.60;7.00;;;6.80;99.90;;;;;;5054966;28;20236;-48
2021/03/21 02:13:29;;;;;;;11.50;6.87;;;6.90;99.90;;;;;;5055210;28;20260;-47
2021/03/21 02:16:13;;;;;;;13.17;7.50;;;7.10;99.90;;;;;;5056126;28;20295;-48
2021/03/21 02:18:58;;;;;;;11.27;7.10;;;7.20;99.90;;;;;;5056626;28;20250;-47
2021/03/21 02:21:45;;;;;;;13.47;7.90;;;7.40;99.90;;;;;;5057491;28;20316;-48
2021/03/21 02:24:32;;;;;;;12.47;7.57;;;7.40;99.90;;;;;;5056199;28;20947;-48
2021/03/21 02:27:13;;;;;;;12.43;7.57;;;7.40;99.90;;;;;;5055260;28;20637;-47
2021/03/21 02:29:55;;;;;;;13.27;7.37;;;7.60;99.90;;;;;;5052710;28;20301;-48
2021/03/21 02:32:38;;;;;;;11.80;7.53;;;7.40;99.90;;;;;;5059901;28;20346;-48
2021/03/21 02:35:16;;;;;;;9.50;6.70;;;7.60;99.90;;;;;;5051945;28;20816;-46
2021/03/21 02:38:11;;;;;;;12.40;7.27;;;7.60;99.90;;;;;;5036276;28;20203;-47
2021/03/21 02:40:47;;;;;;;11.10;7.00;;;7.70;99.90;;;;;;5051958;28;20203;-48
2021/03/21 02:43:33;;;;;;;10.50;7.00;;;7.80;99.90;;;;;;5053534;28;20305;-48
2021/03/21 02:46:04;;;;;;;10.33;6.50;;;7.70;99.90;;;;;;5054401;28;20300;-47
2021/03/21 02:48:44;;;;;;;11.07;6.40;;;7.70;99.90;;;;;;5051751;28;20215;-47
2021/03/21 02:51:18;;;;;;;9.60;6.20;;;7.60;99.90;;;;;;5053506;28;20407;-47
2021/03/21 02:53:51;;;;;;;9.43;6.00;;;7.40;99.90;;;;;;5053479;28;20571;-47
2021/03/21 02:56:22;;;;;;;12.60;7.90;;;7.40;99.90;;;;;;5054586;28;20227;-49
2021/03/21 02:59:04;;;;;;;9.33;6.33;;;7.50;99.90;;;;;;5054683;28;20196;-48
2021/03/21 03:01:34;;;;;;;10.10;6.50;;;7.30;99.90;;;;;;5055969;28;20604;-49
2021/03/21 03:04:06;;;;;;;9.50;6.93;;;7.20;99.90;;;;;;5052108;28;22026;-48
2021/03/21 03:06:42;;;;;;;9.40;6.17;;;7.40;99.90;;;;;;5050033;28;21725;-47
2021/03/21 03:09:25;;;;;;;12.23;6.50;;;7.20;99.90;;;;;;5050038;28;20243;-48
2021/03/21 03:11:56;;;;;;;9.80;5.63;;;7.10;99.90;;;;;;5052558;28;20263;-47
2021/03/21 03:14:36;;;;;;;11.13;6.47;;;7.20;99.90;;;;;;5051646;28;20355;-48
2021/03/21 03:17:09;;;;;;;10.90;6.23;;;7.20;99.90;;;;;;5049775;28;20607;-48
2021/03/21 03:19:41;;;;;;;11.80;6.67;;;7.20;99.90;;;;;;5053318;28;20687;-48
2021/03/21 03:22:49;;;;;;;11.00;6.67;;;7.20;99.90;;;;;;5030928;28;20275;-47
2021/03/21 03:25:41;;;;;;;10.80;6.60;;;7.30;99.90;;;;;;5051558;28;20689;-48
2021/03/21 03:28:35;;;;;;;10.37;6.23;;;7.40;99.90;;;;;;5051534;28;20392;-50
2021/03/21 03:31:13;;;;;;;12.33;7.33;;;7.30;99.90;;;;;;5052421;28;20199;-47
2021/03/21 03:33:40;;;;;;;14.17;6.83;;;7.40;99.90;;;;;;5051185;28;20211;-47
2021/03/21 03:36:09;;;;;;;12.23;7.17;;;7.50;99.90;;;;;;5046537;28;20249;-48
2021/03/21 03:38:41;;;;;;;12.97;7.07;;;7.30;99.90;;;;;;5053055;28;21146;-47
2021/03/21 03:41:15;;;;;;;15.10;8.17;;;7.30;99.90;;;;;;5052698;28;20211;-47
2021/03/21 03:43:48;;;;;;;13.47;7.57;;;7.50;99.90;;;;;;5051526;28;20207;-48
2021/03/21 03:46:19;;;;;;;15.67;8.00;;;7.50;99.90;;;;;;5034939;28;20300;-48
2021/03/21 03:48:56;;;;;;;16.67;8.13;;;7.70;99.90;;;;;;5052768;28;20269;-48
2021/03/21 03:51:35;;;;;;;19.57;8.10;;;7.60;99.90;;;;;;5027386;28;20207;-49
2021/03/21 03:54:11;;;;;;;14.30;7.93;;;7.60;99.90;;;;;;5052870;28;20723;-48
2021/03/21 03:56:46;;;;;;;16.17;8.73;;;7.60;99.90;;;;;;5039527;28;20720;-47
2021/03/21 03:59:28;;;;;;;16.70;9.53;;;7.70;99.90;;;;;;5033841;28;20198;-47
2021/03/21 04:02:13;;;;;;;14.97;7.97;;;7.50;99.90;;;;;;5052861;28;20647;-48
2021/03/21 04:05:00;;;;;;;17.37;8.43;;;7.70;99.90;;;;;;5049601;28;20215;-48
2021/03/21 04:07:38;;;;;;;14.90;9.03;;;7.90;99.90;;;;;;5050689;28;20208;-48
2021/03/21 04:10:05;;;;;;;20.10;9.60;;;7.90;99.90;;;;;;5051363;28;20219;-48
2021/03/21 04:12:41;;;;;;;18.10;9.53;;;7.70;99.90;;;;;;5051693;28;20749;-46
2021/03/21 04:15:15;;;;;;;19.10;9.47;;;7.90;99.90;;;;;;5053372;28;20211;-48
2021/03/21 04:18:04;;;;;;;16.53;9.17;;;7.90;99.90;;;;;;5037256;28;20223;-50
2021/03/21 04:20:37;;;;;;;19.47;9.07;;;8.00;99.90;;;;;;5052101;28;20288;-47
2021/03/21 04:23:12;;;;;;;16.83;9.10;;;8.00;99.90;;;;;;5036469;28;20223;-49
2021/03/21 04:25:45;;;;;;;17.17;8.80;;;8.10;99.90;;;;;;5056009;28;20284;-47
2021/03/21 04:28:22;;;;;;;19.50;9.97;;;8.10;99.90;;;;;;5053705;28;21404;-47
2021/03/21 04:31:02;;;;;;;20.10;9.23;;;8.10;99.90;;;;;;5054590;28;20201;-49
2021/03/21 04:33:37;;;;;;;18.93;10.13;;;8.00;99.90;;;;;;5056695;28;20278;-47
2021/03/21 04:36:18;;;;;;;18.33;9.53;;;8.20;99.90;;;;;;5055537;28;20226;-47
2021/03/21 04:38:52;;;;;;;20.17;10.03;;;8.20;99.90;;;;;;5054636;28;20905;-47
2021/03/21 04:41:25;;;;;;;21.27;10.30;;;7.90;99.90;;;;;;5054815;28;20203;-48
2021/03/21 04:44:07;;;;;;;23.43;11.80;;;7.90;99.90;;;;;;5056455;28;20199;-48
2021/03/21 04:46:56;;;;;;;22.50;11.40;;;7.90;99.90;;;;;;5056297;28;20668;-47
2021/03/21 04:49:23;;;;;;;15.00;9.30;;;8.00;99.90;;;;;;5056735;28;20231;-49
2021/03/21 04:51:58;;;;;;;22.83;10.40;;;7.90;99.90;;;;;;5054852;28;20204;-48
2021/03/21 04:54:29;;;;;;;20.53;11.43;;;8.00;99.90;;;;;;5054029;28;20609;-47
2021/03/21 04:57:15;;;;;;;16.37;9.37;;;7.90;99.90;;;;;;5053916;28;20588;-47
2021/03/21 04:59:44;;;;;;;16.23;9.07;;;7.90;99.90;;;;;;5056065;28;20635;-47
2021/03/21 05:02:27;;;;;;;20.70;11.83;;;7.90;99.90;;;;;;5056201;28;20254;-47
2021/03/21 05:05:10;;;;;;;19.27;11.00;;;7.80;99.90;;;;;;5053331;28;20203;-48
2021/03/21 05:08:00;;;;;;;14.30;8.90;;;7.80;99.90;;;;;;5056145;28;20329;-47
2021/03/21 05:10:33;;;;;;;16.07;8.80;;;7.80;99.90;;;;;;5054804;28;20219;-47
2021/03/21 05:13:24;;;;;;;14.87;9.60;;;7.80;99.90;;;;;;5042441;28;20227;-47
2021/03/21 05:16:00;;;;;;;17.70;8.67;;;7.70;99.90;;;;;;5053875;28;20222;-47
2021/03/21 05:18:36;;;;;;;16.40;9.77;;;7.80;99.90;;;;;;5054380;28;20231;-46
2021/03/21 05:21:09;;;;;;;14.50;8.60;;;7.80;99.90;;;;;;5054392;28;20228;-47
2021/03/21 05:23:59;;;;;;;12.83;8.80;;;7.80;99.90;;;;;;5055827;28;20726;-47
2021/03/21 05:26:49;;;;;;;12.63;7.37;;;7.60;99.90;;;;;;5056786;28;20200;-48
2021/03/21 05:29:43;;;;;;;15.50;8.50;;;7.60;99.90;;;;;;5052904;28;20226;-47
2021/03/21 05:32:12;;;;;;;12.43;7.30;;;7.70;99.90;;;;;;5053832;28;20744;-48
2021/03/21 05:34:39;;;;;;;14.47;7.83;;;7.60;99.90;;;;;;5056322;28;20656;-47
2021/03/21 05:37:34;;;;;;;11.40;7.37;;;7.60;99.90;;;;;;5054792;28;20255;-47
2021/03/21 05:40:00;;;;;;;12.37;7.77;;;7.70;99.90;;;;;;5046498;28;20206;-47
2021/03/21 05:43:06;;;;;;;13.50;7.87;;;7.70;99.90;;;;;;5051721;28;20305;-47
2021/03/21 05:45:45;;;;;;;14.10;7.30;;;7.80;99.90;;;;;;5029674;28;20306;-47
2021/03/21 05:48:11;;;;;;;10.40;5.83;;;7.90;99.90;;;;;;5054939;28;20212;-47
2021/03/21 05:51:08;;;;;;;11.23;5.93;;;7.70;99.90;;;;;;5052462;28;20655;-48
2021/03/21 05:54:03;;;;;;;10.67;5.97;;;7.80;99.90;;;;;;5053298;28;20283;-46
2021/03/21 05:57:06;;;;;;;9.70;5.73;;;7.80;99.90;;;;;;5054316;28;20334;-47
2021/03/21 05:59:58;;;;;;;10.87;5.47;;;7.90;99.90;;;;;;5053405;28;20289;-48
2021/03/21 06:02:33;;;;;;;11.07;5.97;;;7.80;99.90;;;;;;5055067;28;20280;-46
2021/03/21 06:05:21;;;;;;;10.43;5.67;;;7.90;99.90;;;;;;5054512;28;20333;-47
2021/03/21 06:07:59;;;;;;;13.50;5.97;;;7.80;99.90;;;;;;5055124;28;20790;-46
2021/03/21 06:10:44;;;;;;;8.63;5.70;;;8.00;99.90;;;;;;5051977;28;20275;-47
2021/03/21 06:13:38;;;;;;;12.93;6.40;;;8.10;99.90;;;;;;5048260;28;20280;-46
2021/03/21 06:16:23;;;;;;;12.33;5.50;;;8.10;99.90;;;;;;5054623;28;20262;-48
2021/03/21 06:19:23;;;;;;;9.00;5.23;;;8.00;99.90;;;;;;5051958;28;20211;-47
2021/03/21 06:22:21;;;;;;;12.00;4.87;;;8.10;99.90;;;;;;5054964;28;20301;-47
2021/03/21 06:25:25;;;;;;;7.87;4.30;;;8.10;99.90;;;;;;5054262;28;20240;-48
2021/03/21 06:28:22;;;;;;;7.03;3.50;;;8.10;99.90;;;;;;5031490;28;20297;-47
2021/03/21 06:31:03;;;;;;;5.73;3.07;;;7.90;99.90;;;;;;5053206;28;20231;-46
2021/03/21 06:33:32;;;;;;;12.07;3.40;;;7.90;99.90;;;;;;5053248;28;20239;-48
2021/03/21 06:36:21;;;;;;;4.97;2.20;;;7.90;99.90;;;;;;5052415;28;20193;-46
2021/03/21 06:39:14;;;;;;;5.97;1.87;;;7.90;99.90;;;;;;5053957;28;20250;-46
2021/03/21 06:42:05;;;;;;;5.23;1.93;;;7.70;99.90;;;;;;5051112;28;20207;-48
2021/03/21 06:44:58;;;;;;;6.43;1.97;;;7.70;99.90;;;;;;5035182;28;20209;-47
2021/03/21 06:47:46;;;;;;;7.70;1.80;;;7.80;99.90;;;;;;5051678;28;20204;-49
2021/03/21 06:50:39;;;;;;;11.63;1.40;;;7.80;99.90;;;;;;5050489;28;20226;-48
2021/03/21 06:53:08;;;;;;;3.57;1.03;;;7.70;99.90;;;;;;5052412;28;20217;-48
2021/03/21 06:55:45;;;;;;;3.10;1.17;;;7.70;99.90;;;;;;5052132;28;20256;-46
2021/03/21 06:58:36;;;;;;;3.93;1.20;;;7.70;99.90;;;;;;5051471;28;20239;-46
2021/03/21 07:01:24;;;;;;;5.33;1.40;;;7.70;99.90;;;;;;5047997;28;20215;-47
2021/03/21 07:04:09;;;;;;;4.97;0.90;;;7.80;99.90;;;;;;5052594;28;20208;-47
2021/03/21 07:07:10;;;;;;;6.30;1.00;;;7.70;99.90;;;;;;5053775;28;20335;-47
2021/03/21 07:10:15;;;;;;;6.03;1.40;;;7.80;99.90;;;;;;5053269;28;20219;-47
2021/03/21 07:13:31;;;;;;;11.27;1.97;;;7.80;99.90;;;;;;5053042;28;20312;-48
2021/03/21 07:16:25;;;;;;;5.03;1.20;;;7.90;99.90;;;;;;5052605;28;20254;-46
2021/03/21 07:19:06;;;;;;;5.60;0.90;;;8.00;99.90;;;;;;5051144;28;20563;-46
2021/03/21 07:21:51;;;;;;;2.87;0.97;;;7.90;99.90;;;;;;5052665;28;20299;-49
2021/03/21 07:24:52;;;;;;;8.73;1.40;;;8.00;99.90;;;;;;5051095;28;20295;-48
2021/03/21 07:27:34;;;;;;;5.03;1.37;;;7.90;99.90;;;;;;5051956;28;20203;-47
2021/03/21 07:30:07;;;;;;;3.57;1.33;;;8.00;99.90;;;;;;5052146;28;20291;-49
2021/03/21 07:33:10;;;;;;;8.33;1.40;;;8.00;99.90;;;;;;5050576;28;20705;-48
2021/03/21 07:35:53;;;;;;;7.90;1.50;;;8.10;99.90;;;;;;5051145;28;20228;-47
2021/03/21 07:38:35;;;;;;;4.73;1.60;;;8.10;99.90;;;;;;5054552;28;20236;-48
2021/03/21 07:41:19;;;;;;;6.60;1.40;;;8.10;99.90;;;;;;5052162;28;20324;-48
2021/03/21 07:43:46;;;;;;;6.00;1.20;;;8.10;99.90;;;;;;5051717;28;20202;-47
2021/03/21 07:46:36;;;;;;;4.30;1.60;;;8.10;99.90;;;;;;5054514;28;20553;-49
2021/03/21 07:49:22;;;;;;;7.23;1.97;;;8.10;99.90;;;;;;5052606;28;20222;-50
2021/03/21 07:52:19;;;;;;;6.33;1.53;;;8.10;99.90;;;;;;5045356;28;20730;-48
2021/03/21 07:54:57;;;;;;;4.03;1.60;;;8.00;99.90;;;;;;5051670;28;20228;-48
2021/03/21 07:57:53;;;;;;;7.90;1.77;;;7.90;99.90;;;;;;5053701;28;20200;-48
2021/03/21 08:00:20;;;;;;;5.77;1.67;;;8.00;99.90;;;;;;5054866;28;20223;-48
2021/03/21 08:03:13;;;;;;;6.37;1.93;;;8.00;99.90;;;;;;5051370;28;20197;-47
2021/03/21 08:05:41;;;;;;;8.53;1.97;;;8.10;99.90;;;;;;5046978;28;20231;-48
2021/03/21 08:08:18;;;;;;;8.07;1.20;;;8.00;99.90;;;;;;5052394;28;20203;-49
2021/03/21 08:10:51;;;;;;;4.50;1.37;;;7.90;99.90;;;;;;5051927;28;20356;-48
2021/03/21 08:13:24;;;;;;;5.00;1.40;;;8.00;99.90;;;;;;5051779;28;20196;-49
2021/03/21 08:15:51;;;;;;;9.50;1.20;;;8.30;99.90;;;;;;5052846;28;20387;-49
2021/03/21 08:18:22;;;;;;;4.17;1.40;;;8.30;99.90;;;;;;5053658;28;20215;-49
2021/03/21 08:20:55;;;;;;;9.50;2.17;;;8.30;99.90;;;;;;5052695;28;20305;-49
2021/03/21 08:23:33;;;;;;;7.03;1.03;;;8.20;99.90;;;;;;5051681;28;20296;-49
2021/03/21 08:26:08;;;;;;;6.43;1.80;;;8.30;99.90;;;;;;5052145;28;20664;-48
2021/03/21 08:29:25;;;;;;;7.73;1.30;;;8.10;99.90;;;;;;5050842;28;20203;-49
2021/03/21 08:32:03;;;;;;;7.07;1.43;;;8.10;99.90;;;;;;5010666;28;20611;-50
2021/03/21 08:34:33;;;;;;;4.53;1.50;;;8.00;99.90;;;;;;5011317;28;20300;-49
2021/03/21 08:37:01;;;;;;;8.50;1.67;;;8.00;99.90;;;;;;5012127;28;20217;-49
2021/03/21 08:39:39;;;;;;;4.20;0.83;;;8.10;99.90;;;;;;5012473;28;20211;-50
2021/03/21 08:42:27;;;;;;;7.67;1.87;;;8.20;99.90;;;;;;4981036;28;20209;-48
2021/03/21 08:45:17;;;;;;;9.50;1.03;;;8.30;99.90;;;;;;5010342;28;20664;-53
2021/03/21 08:47:44;;;;;;;8.83;1.43;;;8.40;99.90;;;;;;5014434;28;20658;-49
2021/03/21 08:50:32;;;;;;;7.00;1.60;;;8.40;99.90;;;;;;5009006;28;20945;-49
2021/03/21 08:52:59;;;;;;;4.43;1.10;;;8.20;99.90;;;;;;5011392;28;20208;-49
2021/03/21 08:55:30;;;;;;;17.20;1.97;;;8.20;99.90;;;;;;5011939;28;20262;-48
2021/03/21 08:57:56;;;;;;;8.70;1.40;;;8.20;99.90;;;;;;5012468;28;20311;-50
2021/03/21 09:00:35;;;;;;;7.20;1.30;;;8.20;99.90;;;;;;4989624;28;20238;-48
2021/03/21 09:03:23;;;;;;;8.40;1.73;;;8.10;99.90;;;;;;5022967;28;20200;-49
2021/03/21 09:05:55;;;;;;;6.80;2.03;;;8.30;99.90;;;;;;5048628;28;20300;-47
2021/03/21 09:08:35;;;;;;;7.23;1.63;;;8.30;99.90;;;;;;5053332;28;20264;-48
2021/03/21 09:11:05;;;;;;;7.97;1.40;;;8.30;99.90;;;;;;5054622;28;21142;-48
2021/03/21 09:13:36;;;;;;;7.53;1.33;;;8.40;99.90;;;;;;5038389;28;20199;-49
2021/03/21 09:16:10;;;;;;;10.50;1.83;;;8.30;99.90;;;;;;5053414;28;20583;-48
2021/03/21 09:18:42;;;;;;;4.83;1.27;;;8.40;99.90;;;;;;5053121;28;20235;-48
2021/03/21 09:21:17;;;;;;;10.13;1.53;;;8.60;99.90;;;;;;5054405;28;20244;-49
2021/03/21 09:23:53;;;;;;;6.20;1.17;;;8.80;99.90;;;;;;5054982;28;21962;-49
2021/03/21 09:26:20;;;;;;;6.30;1.50;;;8.60;99.90;;;;;;5055148;28;20231;-48
2021/03/21 09:28:59;;;;;;;9.33;1.97;;;8.60;99.90;;;;;;5053778;28;20755;-49
2021/03/21 09:31:26;;;;;;;7.50;1.77;;;8.70;99.90;;;;;;5055025;28;20478;-50
2021/03/21 09:34:25;;;;;;;7.70;1.63;;;8.70;99.90;;;;;;5054886;28;20315;-51
2021/03/21 09:36:55;;;;;;;13.53;2.10;;;8.70;99.90;;;;;;5053376;28;20551;-50
2021/03/21 09:39:38;;;;;;;3.40;1.60;;;8.90;99.90;;;;;;5053298;28;20290;-49
2021/03/21 09:42:09;;;;;;;11.80;1.90;;;8.90;99.90;;;;;;5055126;28;20203;-50
2021/03/21 09:44:40;;;;;;;12.60;1.57;;;8.70;99.90;;;;;;5058099;28;20745;-50
2021/03/21 09:47:25;;;;;;;9.27;1.93;;;8.70;99.90;;;;;;5051240;28;20280;-49
2021/03/21 09:50:08;;;;;;;8.93;1.63;;;8.80;99.90;;;;;;5053181;28;20310;-48
2021/03/21 09:52:55;;;;;;;12.67;2.60;;;8.90;99.90;;;;;;5054277;28;20713;-49
2021/03/21 09:55:27;;;;;;;9.60;2.10;;;9.00;99.90;;;;;;5051933;28;20204;-50
2021/03/21 09:58:04;;;;;;;5.27;1.33;;;9.10;99.90;;;;;;5053742;28;20697;-48
2021/03/21 10:00:34;;;;;;;6.80;1.50;;;8.90;99.90;;;;;;5051046;28;20293;-48
2021/03/21 10:03:09;;;;;;;9.60;2.10;;;8.80;99.90;;;;;;5047008;28;20623;-49
2021/03/21 10:05:47;;;;;;;13.97;2.57;;;8.80;99.90;;;;;;5054006;28;20702;-49
2021/03/21 10:08:38;;;;;;;6.87;1.67;;;8.90;99.90;;;;;;5048501;28;20195;-51
2021/03/21 10:11:08;;;;;;;12.63;2.27;;;8.80;99.90;;;;;;5050108;28;20224;-48
2021/03/21 10:13:46;;;;;;;6.07;1.63;;;8.60;99.90;;;;;;5052571;28;20287;-50
2021/03/21 10:16:15;;;;;;;10.63;1.60;;;8.40;99.90;;;;;;5055059;28;20253;-50
2021/03/21 10:18:49;;;;;;;9.83;2.43;;;8.50;99.90;;;;;;5052271;28;20559;-50
2021/03/21 10:21:24;;;;;;;11.27;1.87;;;8.70;99.90;;;;;;5050590;28;20630;-51
2021/03/21 10:23:51;;;;;;;12.63;2.03;;;8.50;99.90;;;;;;5054465;28;20582;-50
2021/03/21 10:26:24;;;;;;;10.97;2.10;;;8.60;99.90;;;;;;5043291;28;20660;-48
2021/03/21 10:28:53;;;;;;;18.53;2.70;;;8.70;99.90;;;;;;5053637;28;20243;-50
2021/03/21 10:31:23;;;;;;;11.03;2.30;;;8.60;99.90;;;;;;5055015;28;20585;-50
2021/03/21 10:33:55;;;;;;;16.10;2.40;;;8.60;99.90;;;;;;5055807;28;20201;-50
2021/03/21 10:36:43;;;;;;;12.73;2.37;;;8.50;99.90;;;;;;5054292;28;20558;-51
2021/03/21 10:39:20;;;;;;;12.13;2.27;;;8.60;99.90;;;;;;5054227;28;20270;-48
2021/03/21 10:42:08;;;;;;;14.70;3.10;;;8.90;99.90;;;;;;5052520;28;20290;-50
2021/03/21 10:44:35;;;;;;;19.13;2.40;;;9.00;99.90;;;;;;5031710;28;20228;-50
2021/03/21 10:47:24;;;;;;;14.70;2.50;;;9.10;99.90;;;;;;5050189;28;20269;-50
2021/03/21 10:50:10;;;;;;;13.43;2.73;;;9.30;99.90;;;;;;5051815;28;20770;-50
2021/03/21 10:52:47;;;;;;;11.67;1.87;;;9.40;99.90;;;;;;5051391;28;20204;-51
2021/03/21 10:55:14;;;;;;;7.77;2.17;;;9.40;99.90;;;;;;5054762;28;20654;-50
2021/03/21 10:57:46;;;;;;;11.60;2.37;;;9.70;99.90;;;;;;5053760;28;20218;-51
2021/03/21 11:00:29;;;;;;;10.83;1.80;;;9.50;99.90;;;;;;5049999;28;20208;-49
2021/03/21 11:03:01;;;;;;;13.90;2.30;;;9.50;99.90;;;;;;5051519;28;20337;-50
2021/03/21 11:05:32;;;;;;;9.40;2.63;;;9.50;99.90;;;;;;5036194;28;20244;-50
2021/03/21 11:08:29;;;;;;;18.20;3.37;;;9.30;99.90;;;;;;5053516;28;20211;-50
2021/03/21 11:11:15;;;;;;;20.60;3.37;;;9.20;99.90;;;;;;5044256;28;21463;-51
2021/03/21 11:13:42;;;;;;;10.10;2.17;;;8.90;99.90;;;;;;5053019;28;20201;-50
2021/03/21 11:16:14;;;;;;;16.60;2.37;;;9.00;99.90;;;;;;5054237;28;20200;-50
2021/03/21 11:18:48;;;;;;;8.43;1.93;;;9.00;99.90;;;;;;5051899;28;20199;-48
2021/03/21 11:21:14;;;;;;;11.83;2.33;;;9.00;99.90;;;;;;5041494;28;20210;-51
2021/03/21 11:23:59;;;;;;;11.67;2.43;;;9.00;99.90;;;;;;5049102;28;20770;-52
2021/03/21 11:26:25;;;;;;;13.23;2.60;;;9.00;99.90;;;;;;5052137;28;20215;-50
2021/03/21 11:28:53;;;;;;;13.93;2.53;;;9.20;99.90;;;;;;5052526;28;20588;-48
2021/03/21 11:31:52;;;;;;;16.27;2.00;;;9.00;99.90;;;;;;5057223;28;20624;-51
2021/03/21 11:34:18;;;;;;;17.97;2.47;;;9.10;99.90;;;;;;5050335;28;20294;-50
2021/03/21 11:37:09;;;;;;;7.80;1.73;;;9.10;99.90;;;;;;5057269;28;20210;-50
2021/03/21 11:39:56;;;;;;;9.90;1.90;;;9.30;99.90;;;;;;5032597;28;20265;-50
2021/03/21 11:42:33;;;;;;;9.00;2.97;;;9.20;99.90;;;;;;5056151;28;20659;-50
2021/03/21 11:45:25;;;;;;;11.80;2.37;;;9.20;99.90;;;;;;5055714;28;20247;-50
2021/03/21 11:48:10;;;;;;;10.53;2.23;;;8.90;99.90;;;;;;5054697;28;20212;-55
2021/03/21 11:50:39;;;;;;;11.63;1.80;;;8.90;99.90;;;;;;5053066;28;20215;-51
2021/03/21 11:53:13;;;;;;;14.03;2.30;;;9.00;99.90;;;;;;5045327;28;20274;-49
2021/03/21 11:55:42;;;;;;;13.73;2.57;;;8.90;99.90;;;;;;5057257;28;20288;-51
2021/03/21 11:58:27;;;;;;;15.17;1.93;;;9.10;99.90;;;;;;5057759;28;20531;-50
2021/03/21 12:01:08;;;;;;;12.87;2.57;;;9.20;99.90;;;;;;5055510;28;20640;-51
2021/03/21 12:03:56;;;;;;;8.07;2.17;;;9.30;99.90;;;;;;5057006;28;20300;-51
2021/03/21 12:06:40;;;;;;;14.87;2.43;;;9.00;99.90;;;;;;5054694;28;20237;-50
2021/03/21 12:09:30;;;;;;;9.00;2.07;;;9.00;99.90;;;;;;5056488;28;20753;-50
2021/03/21 12:12:02;;;;;;;14.30;2.37;;;8.90;99.90;;;;;;5054601;28;20207;-50
2021/03/21 12:14:31;;;;;;;8.27;1.70;;;8.80;99.90;;;;;;5038447;28;20242;-50
2021/03/21 12:16:59;;;;;;;12.47;2.53;;;8.90;99.90;;;;;;5056113;28;20199;-50
2021/03/21 12:19:28;;;;;;;7.70;2.97;;;9.00;99.90;;;;;;5055646;28;20769;-50
2021/03/21 12:22:19;;;;;;;12.83;2.77;;;9.10;99.90;;;;;;5054857;28;20202;-50
2021/03/21 12:24:52;;;;;;;13.97;2.80;;;8.90;99.90;;;;;;5039958;28;20212;-49
2021/03/21 12:27:28;;;;;;;10.47;2.20;;;9.00;99.90;;;;;;5054842;28;20299;-49
2021/03/21 12:30:06;;;;;;;13.93;2.23;;;8.70;99.90;;;;;;5055724;28;20732;-50
2021/03/21 12:32:44;;;;;;;13.53;3.33;;;8.80;99.90;;;;;;5036713;28;20260;-50
2021/03/21 12:35:34;;;;;;;10.20;2.00;;;8.90;99.90;;;;;;5052203;28;20207;-50
2021/03/21 12:38:01;;;;;;;16.97;2.60;;;8.80;99.90;;;;;;5056749;28;20316;-50
2021/03/21 12:40:41;;;;;;;19.37;3.17;;;8.90;99.90;;;;;;5045578;28;20284;-50
2021/03/21 12:43:32;;;;;;;9.23;2.53;;;8.70;99.90;;;;;;5056149;28;20235;-49
2021/03/21 12:46:03;;;;;;;14.03;2.77;;;8.70;99.90;;;;;;5053529;28;20217;-51
2021/03/21 12:48:30;;;;;;;13.60;2.33;;;8.70;99.90;;;;;;5060186;28;20217;-49
2021/03/21 12:50:59;;;;;;;10.07;1.80;;;8.80;99.90;;;;;;5058271;28;20227;-48
2021/03/21 12:53:32;;;;;;;12.33;3.13;;;8.90;99.90;;;;;;5058957;28;20298;-48
2021/03/21 12:56:03;;;;;;;15.37;2.57;;;8.80;99.90;;;;;;5059653;28;20298;-49
2021/03/21 12:58:29;;;;;;;10.87;3.73;;;8.80;99.90;;;;;;5060198;28;20235;-49
2021/03/21 13:00:56;;;;;;;14.47;2.50;;;8.90;99.90;;;;;;5059797;28;20217;-48
2021/03/21 13:03:32;;;;;;;10.80;2.23;;;8.90;99.90;;;;;;5058419;28;20549;-49
2021/03/21 13:06:02;;;;;;;12.30;3.00;;;8.70;99.90;;;;;;5059143;28;20343;-49
2021/03/21 13:08:28;;;;;;;13.53;2.30;;;8.80;99.90;;;;;;5058844;28;20556;-51
2021/03/21 13:11:00;;;;;;;14.07;2.47;;;8.70;99.90;;;;;;5031712;28;20239;-50
2021/03/21 13:13:26;;;;;;;18.77;3.23;;;8.80;99.90;;;;;;5058404;28;20209;-50
2021/03/21 13:15:55;;;;;;;11.00;2.80;;;8.80;99.90;;;;;;5059052;28;20209;-49
2021/03/21 13:18:22;;;;;;;13.70;2.90;;;8.90;99.90;;;;;;5058559;28;20207;-51
2021/03/21 13:20:55;;;;;;;14.57;3.07;;;8.70;99.90;;;;;;5041065;28;20259;-49
2021/03/21 13:23:23;;;;;;;18.17;2.30;;;8.90;99.90;;;;;;5059762;28;20199;-49
2021/03/21 13:25:49;;;;;;;12.67;2.30;;;9.00;99.90;;;;;;5042228;28;20279;-48
2021/03/21 13:28:16;;;;;;;11.97;2.77;;;9.00;99.90;;;;;;5058006;28;20263;-50
2021/03/21 13:30:45;;;;;;;11.07;2.70;;;8.90;99.90;;;;;;5057497;28;20675;-50
2021/03/21 13:33:19;;;;;;;14.10;2.47;;;8.90;99.90;;;;;;5058361;28;20599;-49
2021/03/21 13:35:48;;;;;;;10.63;2.20;;;9.10;99.90;;;;;;5053361;28;20207;-48
2021/03/21 13:38:14;;;;;;;13.93;3.07;;;9.40;99.90;;;;;;5059777;28;20241;-49
2021/03/21 13:40:42;;;;;;;11.90;2.37;;;9.50;98.00;;;;;;5058457;28;20204;-50
2021/03/21 13:43:11;;;;;;;17.57;3.50;;;9.20;97.60;;;;;;5058285;28;20288;-49